Time;durP1;ratioP1;P1;durP2;ratioP2;P2;SDS_P1;SDS_P2;PMS_P1;PMS_P2;Temp;Humidity;BMP_temperature;BMP_pressure;BME280_temperature;BME280_humidity;BME280_pressure;Samples;Min_cycle;Max_cycle;Signal;HPM_P1;HPM_P2
2021/01/31 00:00:36;;;;;;;39.73;21.90;;;;;;;-2.21;92.17;97965.81;1752196;82;21175;-58
2021/01/31 00:03:11;;;;;;;38.70;22.37;;;;;;;-2.18;92.12;97964.97;1752242;81;21077;-58
2021/01/31 00:05:39;;;;;;;34.80;21.37;;;;;;;-2.17;92.08;97972.59;1752178;82;21156;-58
2021/01/31 00:08:09;;;;;;;40.23;22.22;;;;;;;-2.16;91.94;97979.38;1747646;81;21162;-57
2021/01/31 00:10:37;;;;;;;35.90;21.27;;;;;;;-2.17;91.95;97984.05;1741280;81;21373;-57
2021/01/31 00:13:05;;;;;;;42.80;23.35;;;;;;;-2.18;91.95;97984.06;1741293;82;21082;-57
2021/01/31 00:15:36;;;;;;;38.15;22.45;;;;;;;-2.16;92.00;97988.28;1741374;82;21597;-57
2021/01/31 00:18:05;;;;;;;36.28;21.70;;;;;;;-2.15;91.96;97986.16;1741350;82;21125;-56
2021/01/31 00:20:34;;;;;;;36.58;21.25;;;;;;;-2.15;91.89;97987.43;1741380;82;21515;-57
2021/01/31 00:23:03;;;;;;;33.33;20.60;;;;;;;-2.13;91.96;97989.53;1741426;82;21219;-57
2021/01/31 00:25:31;;;;;;;32.67;21.00;;;;;;;-2.11;91.91;97993.37;1741248;81;21204;-57
2021/01/31 00:27:59;;;;;;;36.53;21.77;;;;;;;-2.09;91.94;97995.47;1741303;82;21109;-59
2021/01/31 00:30:33;;;;;;;34.35;21.48;;;;;;;-2.07;91.93;97994.59;1741342;81;21177;-57
2021/01/31 00:33:04;;;;;;;31.35;20.05;;;;;;;-2.03;91.93;98005.63;1741511;82;21502;-57
2021/01/31 00:35:36;;;;;;;30.37;19.27;;;;;;;-2.01;91.83;98006.45;1741414;82;21215;-57
2021/01/31 00:38:07;;;;;;;27.65;18.42;;;;;;;-2.01;91.64;98007.73;1741424;82;21092;-57
2021/01/31 00:40:34;;;;;;;30.80;19.60;;;;;;;-2.01;91.46;98014.09;1741321;82;21097;-57
2021/01/31 00:43:03;;;;;;;31.55;19.70;;;;;;;-2.04;91.47;98017.52;1741493;82;21086;-57
2021/01/31 00:45:31;;;;;;;34.75;19.62;;;;;;;-2.05;91.37;98028.95;1741513;81;21213;-59
2021/01/31 00:47:58;;;;;;;34.53;20.37;;;;;;;-2.08;91.34;98024.73;1741509;82;22192;-58
2021/01/31 00:50:48;;;;;;;26.90;17.90;;;;;;;-2.08;91.37;98026.02;1741440;81;21176;-58
2021/01/31 00:53:19;;;;;;;25.75;17.07;;;;;;;-2.06;91.28;98037.02;1742599;82;21608;-58
2021/01/31 00:55:49;;;;;;;27.77;18.05;;;;;;;-2.05;91.17;98031.50;1742470;82;21178;-58
2021/01/31 00:58:19;;;;;;;25.65;17.15;;;;;;;-2.08;91.03;98040.44;1742365;82;21236;-58
2021/01/31 01:00:47;;;;;;;23.67;15.68;;;;;;;-2.11;91.05;98041.31;1742486;82;21371;-58
2021/01/31 01:03:16;;;;;;;26.73;16.70;;;;;;;-2.11;91.01;98051.92;1742532;82;21107;-59
2021/01/31 01:05:46;;;;;;;21.67;15.57;;;;;;;-2.15;90.95;98052.34;1740895;82;21493;-58
2021/01/31 01:08:14;;;;;;;24.23;15.68;;;;;;;-2.15;91.13;98060.41;1742426;82;21096;-58
2021/01/31 01:10:42;;;;;;;26.77;16.85;;;;;;;-2.15;91.08;98065.08;1742469;82;21150;-58
2021/01/31 01:13:10;;;;;;;25.15;16.52;;;;;;;-2.15;91.01;98068.89;1742508;82;21135;-59
2021/01/31 01:15:39;;;;;;;22.17;14.80;;;;;;;-2.14;91.06;98073.56;1742495;82;21202;-59
2021/01/31 01:18:06;;;;;;;23.27;15.95;;;;;;;-2.12;91.06;98072.69;1742496;82;21080;-58
2021/01/31 01:20:34;;;;;;;27.52;17.67;;;;;;;-2.12;91.10;98079.05;1742422;82;21067;-59
2021/01/31 01:23:02;;;;;;;25.10;16.15;;;;;;;-2.12;91.07;98079.05;1742505;82;21123;-57
2021/01/31 01:25:32;;;;;;;22.70;15.98;;;;;;;-2.09;91.15;98085.86;1742477;82;21485;-58
2021/01/31 01:27:59;;;;;;;23.85;15.03;;;;;;;-2.10;91.02;98095.20;1742348;82;21167;-59
2021/01/31 01:30:30;;;;;;;26.57;17.32;;;;;;;-2.09;91.05;98095.61;1742485;82;21064;-59
2021/01/31 01:32:58;;;;;;;28.50;17.80;;;;;;;-2.10;91.04;98093.08;1742294;82;21154;-57
2021/01/31 01:35:27;;;;;;;28.92;18.12;;;;;;;-2.11;91.18;98088.41;1742293;82;21199;-58
2021/01/31 01:37:55;;;;;;;27.27;17.62;;;;;;;-2.08;91.27;98090.09;1742079;82;21379;-57
2021/01/31 01:40:30;;;;;;;30.68;18.73;;;;;;;-2.08;91.23;98092.64;1742031;82;21206;-57
2021/01/31 01:42:59;;;;;;;30.97;18.42;;;;;;;-2.11;91.25;98092.23;1742646;82;25980;-59
2021/01/31 01:45:27;;;;;;;29.48;17.73;;;;;;;-2.10;91.30;98107.93;1742444;82;21553;-57
2021/01/31 01:47:58;;;;;;;27.27;17.42;;;;;;;-2.10;91.33;98105.38;1742388;82;21599;-57
2021/01/31 01:50:40;;;;;;;26.02;17.27;;;;;;;-2.10;91.27;98102.84;1742442;82;21226;-57
2021/01/31 01:53:08;;;;;;;24.57;17.30;;;;;;;-2.09;91.23;98107.50;1730352;82;21109;-57
2021/01/31 01:55:53;;;;;;;28.83;19.12;;;;;;;-2.12;91.25;98101.13;1784367;80;21109;-58
2021/01/31 01:58:21;;;;;;;30.50;18.35;;;;;;;-2.15;91.18;98104.54;1784358;80;21587;-57
2021/01/31 02:00:50;;;;;;;30.05;18.07;;;;;;;-2.18;91.31;98103.72;1784345;80;21120;-57
2021/01/31 02:03:23;;;;;;;27.82;17.80;;;;;;;-2.18;91.24;98102.02;1784423;80;21127;-57
2021/01/31 02:05:59;;;;;;;27.45;17.30;;;;;;;-2.20;91.21;98109.22;1784052;80;21141;-57
2021/01/31 02:08:27;;;;;;;;;;;;;;;-2.24;91.15;98104.58;1787056;79;21588;-57
2021/01/31 02:10:55;;;;;;;27.65;17.40;;;;;;;-2.26;91.24;98106.28;1784343;80;20219;-57
2021/01/31 02:13:23;;;;;;;27.95;17.37;;;;;;;-2.26;91.33;98103.73;1784427;80;21123;-57
2021/01/31 02:15:52;;;;;;;24.00;16.37;;;;;;;-2.26;91.23;98102.04;1784393;80;21170;-57
2021/01/31 02:18:43;;;;;;;25.15;15.55;;;;;;;-2.25;91.28;98104.16;1784435;80;21611;-57
2021/01/31 02:21:49;;;;;;;23.18;15.58;;;;;;;-2.27;91.22;98105.84;1784309;80;21164;-57
2021/01/31 02:24:38;;;;;;;23.62;15.88;;;;;;;-2.28;91.17;98102.87;1784431;80;21060;-57
2021/01/31 02:27:51;;;;;;;26.00;17.25;;;;;;;-2.30;91.21;98101.61;1784514;80;21171;-57
2021/01/31 02:31:02;;;;;;;23.67;15.50;;;;;;;-2.32;91.15;98103.32;1784395;80;21397;-57
2021/01/31 02:33:55;;;;;;;24.95;16.02;;;;;;;-2.35;91.26;98105.02;1772695;80;21187;-57
2021/01/31 02:36:48;;;;;;;29.05;16.55;;;;;;;-2.36;91.28;98102.05;1754292;80;21096;-58
2021/01/31 02:39:41;;;;;;;21.95;15.18;;;;;;;-2.42;91.19;98104.17;1784393;80;21064;-57
2021/01/31 02:42:21;;;;;;;25.08;16.05;;;;;;;-2.43;91.44;98112.66;1784487;80;21115;-57
2021/01/31 02:45:09;;;;;;;22.55;14.87;;;;;;;-2.42;91.57;98102.05;1784372;80;22305;-57
2021/01/31 02:47:50;;;;;;;24.98;16.40;;;;;;;-2.43;91.40;98106.73;1783819;80;21518;-57
2021/01/31 02:50:32;;;;;;;22.80;13.95;;;;;;;-2.46;91.43;98101.23;1784163;79;21195;-56
2021/01/31 02:53:10;;;;;;;25.68;16.85;;;;;;;-2.48;91.63;98109.73;1784191;80;21581;-56
2021/01/31 02:55:54;;;;;;;24.10;14.95;;;;;;;-2.49;91.63;98121.61;1784395;80;21076;-57
2021/01/31 02:58:27;;;;;;;21.90;15.53;;;;;;;-2.47;91.82;98119.05;1784377;80;21469;-57
2021/01/31 03:01:10;;;;;;;20.92;15.25;;;;;;;-2.45;91.77;98126.25;1754066;80;21101;-57
2021/01/31 03:03:45;;;;;;;23.65;15.72;;;;;;;-2.43;91.87;98132.17;1784406;80;21521;-58
2021/01/31 03:06:19;;;;;;;27.67;16.75;;;;;;;-2.42;91.88;98133.44;1784483;80;21076;-58
2021/01/31 03:08:50;;;;;;;27.25;16.67;;;;;;;-2.41;91.79;98133.89;1784289;80;21057;-57
2021/01/31 03:11:25;;;;;;;29.12;18.00;;;;;;;-2.41;91.67;98143.22;1784464;80;21601;-56
2021/01/31 03:14:00;;;;;;;24.80;17.02;;;;;;;-2.43;91.65;98138.11;1784268;80;21081;-59
2021/01/31 03:16:36;;;;;;;32.10;20.20;;;;;;;-2.41;91.74;98139.41;1784364;80;21060;-56
2021/01/31 03:19:09;;;;;;;31.40;20.70;;;;;;;-2.40;91.70;98136.01;1784461;80;26320;-56
2021/01/31 03:21:37;;;;;;;31.90;18.67;;;;;;;-2.38;91.73;98141.50;1784422;80;21041;-58
2021/01/31 03:24:38;;;;;;;27.58;18.23;;;;;;;-2.36;91.62;98138.95;1784420;80;22218;-57
2021/01/31 03:27:16;;;;;;;24.10;16.42;;;;;;;-2.37;91.49;98143.63;1784408;80;21502;-57
2021/01/31 03:29:44;;;;;;;25.02;17.82;;;;;;;-2.36;91.63;98154.22;1784251;80;21057;-57
2021/01/31 03:32:30;;;;;;;26.23;17.25;;;;;;;-2.36;91.49;98153.80;1784355;80;21175;-57
2021/01/31 03:35:08;;;;;;;26.75;16.95;;;;;;;-2.35;91.43;98159.30;1784496;80;21147;-57
2021/01/31 03:37:57;;;;;;;24.92;16.55;;;;;;;-2.37;91.38;98163.98;1784369;80;21238;-57
2021/01/31 03:40:24;;;;;;;27.48;17.07;;;;;;;-2.42;91.13;98165.67;1775601;80;21091;-57
2021/01/31 03:42:55;;;;;;;25.75;16.75;;;;;;;-2.48;91.32;98171.64;1784250;80;21072;-57
2021/01/31 03:45:47;;;;;;;29.77;17.55;;;;;;;-2.51;91.28;98168.66;1784325;80;21069;-57
2021/01/31 03:48:19;;;;;;;26.15;16.77;;;;;;;-2.54;91.27;98169.09;1784344;80;21053;-57
2021/01/31 03:50:46;;;;;;;28.10;17.42;;;;;;;-2.57;91.41;98172.89;1754200;80;21112;-58
2021/01/31 03:53:14;;;;;;;24.45;16.85;;;;;;;-2.58;91.24;98171.20;1778674;80;21501;-57
2021/01/31 03:55:43;;;;;;;26.57;17.17;;;;;;;-2.59;91.37;98171.63;1737689;80;21113;-57
2021/01/31 03:58:13;;;;;;;23.15;15.90;;;;;;;-2.59;91.22;98179.69;1776001;80;21128;-57
2021/01/31 04:00:48;;;;;;;30.95;17.20;;;;;;;-2.65;91.20;98180.53;1754705;80;21136;-56
2021/01/31 04:03:23;;;;;;;24.20;16.52;;;;;;;-2.68;91.24;98186.91;1776232;80;21494;-56
2021/01/31 04:06:01;;;;;;;26.73;16.87;;;;;;;-2.68;91.41;98188.60;1776006;80;21112;-57
2021/01/31 04:08:29;;;;;;;24.63;16.57;;;;;;;-2.64;91.43;98188.61;1775812;80;21187;-57
2021/01/31 04:10:58;;;;;;;25.60;16.20;;;;;;;-2.63;91.28;98195.39;1776294;80;21536;-57
2021/01/31 04:13:25;;;;;;;24.80;15.58;;;;;;;-2.66;91.17;98190.28;1776230;80;21060;-56
2021/01/31 04:15:56;;;;;;;25.27;15.68;;;;;;;-2.67;91.27;98195.37;1776192;80;21364;-57
2021/01/31 04:18:23;;;;;;;24.07;15.65;;;;;;;-2.65;91.25;98197.49;1776176;80;21101;-57
2021/01/31 04:20:51;;;;;;;23.42;15.60;;;;;;;-2.66;91.15;98199.19;1776149;80;21112;-57
2021/01/31 04:23:19;;;;;;;26.15;16.12;;;;;;;-2.66;91.15;98204.70;1776209;80;21160;-57
2021/01/31 04:25:48;;;;;;;27.40;16.95;;;;;;;-2.64;91.24;98203.88;1776174;80;21061;-57
2021/01/31 04:28:24;;;;;;;23.47;14.45;;;;;;;-2.60;91.28;98206.83;1776183;80;21310;-56
2021/01/31 04:30:56;;;;;;;27.55;15.95;;;;;;;-2.61;91.07;98206.41;1776287;80;27214;-58
2021/01/31 04:33:26;;;;;;;21.90;14.63;;;;;;;-2.63;91.02;98210.66;1776228;80;21085;-57
2021/01/31 04:35:53;;;;;;;24.30;14.85;;;;;;;-2.64;91.10;98204.30;1776137;80;21088;-57
2021/01/31 04:38:22;;;;;;;18.67;14.03;;;;;;;-2.66;90.94;98214.88;1776187;80;21183;-57
2021/01/31 04:40:49;;;;;;;21.35;14.75;;;;;;;-2.69;90.93;98215.73;1776165;80;21356;-58
2021/01/31 04:43:18;;;;;;;21.52;14.13;;;;;;;-2.70;91.06;98215.74;1754720;80;21096;-57
2021/01/31 04:45:47;;;;;;;21.25;13.55;;;;;;;-2.70;91.09;98219.56;1776280;80;21498;-57
2021/01/31 04:48:33;;;;;;;22.07;14.18;;;;;;;-2.70;91.00;98225.49;1730992;80;21080;-59
2021/01/31 04:51:08;;;;;;;18.10;12.45;;;;;;;-2.71;91.08;98230.59;1776258;80;21565;-58
2021/01/31 04:54:02;;;;;;;22.02;13.83;;;;;;;-2.71;91.14;98236.52;1782039;80;22063;-58
2021/01/31 04:56:53;;;;;;;19.60;13.93;;;;;;;-2.71;91.24;98247.97;1769062;80;21175;-57
2021/01/31 04:59:32;;;;;;;17.40;12.55;;;;;;;-2.68;91.29;98255.59;1784445;80;21115;-56
2021/01/31 05:02:21;;;;;;;17.87;12.50;;;;;;;-2.64;91.22;98259.00;1784403;80;21118;-57
2021/01/31 05:04:58;;;;;;;22.05;12.50;;;;;;;-2.61;91.12;98257.30;1757782;80;21171;-59
2021/01/31 05:07:37;;;;;;;17.90;12.55;;;;;;;-2.61;90.98;98256.02;1784432;80;21409;-57
2021/01/31 05:10:06;;;;;;;17.42;11.38;;;;;;;-2.60;90.92;98265.77;1784363;80;21501;-58
2021/01/31 05:12:42;;;;;;;16.90;11.90;;;;;;;-2.65;90.66;98268.73;1784545;80;21485;-58
2021/01/31 05:15:21;;;;;;;;;;;;;;;-2.71;90.72;98271.28;1787115;79;21155;-56
2021/01/31 05:17:51;;;;;;;17.75;12.85;;;;;;;-2.76;90.74;98278.89;1784490;80;20258;-58
2021/01/31 05:20:25;;;;;;;18.80;11.90;;;;;;;-2.81;90.77;98279.30;1784432;80;21199;-58
2021/01/31 05:22:55;;;;;;;18.42;12.75;;;;;;;-2.84;90.84;98285.23;1784452;80;21601;-57
2021/01/31 05:25:27;;;;;;;17.92;11.83;;;;;;;-2.87;90.97;98291.60;1784460;80;21132;-57
2021/01/31 05:27:59;;;;;;;17.50;12.68;;;;;;;-2.87;90.94;98294.53;1784480;80;21514;-57
2021/01/31 05:30:28;;;;;;;18.65;12.43;;;;;;;-2.92;91.02;98305.14;1784481;80;21073;-57
2021/01/31 05:33:15;;;;;;;22.87;13.30;;;;;;;-2.91;91.16;98307.68;1784494;80;22234;-57
2021/01/31 05:35:48;;;;;;;19.23;13.43;;;;;;;-2.89;91.10;98315.31;1784167;79;21136;-57
2021/01/31 05:38:38;;;;;;;21.17;14.28;;;;;;;-2.92;91.07;98316.58;1784436;80;21057;-57
2021/01/31 05:41:44;;;;;;;18.02;13.18;;;;;;;-2.95;91.00;98322.48;1778830;80;21148;-58
2021/01/31 05:44:20;;;;;;;19.20;13.00;;;;;;;-2.95;91.04;98321.64;1784413;80;21152;-58
2021/01/31 05:46:55;;;;;;;23.02;16.17;;;;;;;-3.00;90.86;98333.08;1784442;80;21270;-56
2021/01/31 05:49:37;;;;;;;21.10;15.30;;;;;;;-3.07;90.67;98333.91;1783907;80;21143;-57
2021/01/31 05:52:24;;;;;;;22.37;13.88;;;;;;;-3.18;90.75;98336.38;1784377;80;21088;-57
2021/01/31 05:54:53;;;;;;;21.42;14.78;;;;;;;-3.27;90.60;98337.61;1784511;80;21655;-57
2021/01/31 05:57:35;;;;;;;21.68;13.32;;;;;;;-3.36;90.76;98347.73;1784373;80;21127;-57
2021/01/31 06:00:25;;;;;;;21.65;13.83;;;;;;;-3.41;90.98;98356.59;1784400;80;21430;-57
2021/01/31 06:03:08;;;;;;;21.25;14.25;;;;;;;-3.42;90.95;98361.25;1783163;80;21584;-58
2021/01/31 06:05:36;;;;;;;19.48;13.45;;;;;;;-3.43;90.96;98365.91;1784397;80;21076;-57
2021/01/31 06:08:08;;;;;;;22.62;13.85;;;;;;;-3.47;90.77;98373.09;1784336;80;21056;-57
2021/01/31 06:10:39;;;;;;;20.45;13.78;;;;;;;-3.54;90.61;98374.31;1784426;80;21076;-57
2021/01/31 06:13:14;;;;;;;26.77;16.05;;;;;;;-3.61;90.46;98381.47;1784481;80;22177;-57
2021/01/31 06:15:53;;;;;;;19.87;13.10;;;;;;;-3.70;90.39;98388.19;1783730;80;21156;-57
2021/01/31 06:18:25;;;;;;;23.07;14.95;;;;;;;-3.76;90.29;98383.05;1784221;80;21576;-60
2021/01/31 06:20:54;;;;;;;22.35;15.03;;;;;;;-3.80;90.36;98388.08;1784226;80;21077;-58
2021/01/31 06:23:36;;;;;;;22.30;14.98;;;;;;;-3.80;90.28;98401.63;1705998;80;21124;-57
2021/01/31 06:26:04;;;;;;;20.65;14.00;;;;;;;-3.84;90.04;98394.84;1784446;80;22220;-57
2021/01/31 06:28:40;;;;;;;21.97;14.60;;;;;;;-3.94;89.78;98399.39;1784297;80;21175;-57
2021/01/31 06:31:36;;;;;;;19.87;13.35;;;;;;;-4.01;89.63;98412.86;1784293;80;21052;-58
2021/01/31 06:34:04;;;;;;;23.05;15.78;;;;;;;-4.08;89.37;98419.98;1784471;80;21068;-57
2021/01/31 06:36:59;;;;;;;26.05;16.07;;;;;;;-4.13;89.01;98424.19;1784419;80;21596;-57
2021/01/31 06:40:08;;;;;;;23.98;15.93;;;;;;;-4.12;88.96;98432.23;1784417;80;21861;-57
2021/01/31 06:43:14;;;;;;;21.25;13.43;;;;;;;-4.13;88.92;98430.53;1784254;80;21104;-57
2021/01/31 06:45:59;;;;;;;23.67;15.03;;;;;;;-4.08;88.97;98438.64;1784366;80;21565;-56
2021/01/31 06:48:59;;;;;;;21.77;13.75;;;;;;;-4.01;88.97;98435.29;1784355;80;21060;-57
2021/01/31 06:51:56;;;;;;;16.82;11.18;;;;;;;-3.90;88.97;98437.95;1784409;80;21048;-57
2021/01/31 06:55:07;;;;;;;16.97;11.03;;;;;;;-3.78;88.72;98442.27;1795034;79;21204;-56
2021/01/31 06:58:05;;;;;;;14.70;10.35;;;;;;;-3.71;88.70;98441.05;1798555;79;21076;-57
2021/01/31 07:00:58;;;;;;;13.85;10.15;;;;;;;-3.60;88.46;98445.39;1798643;79;21166;-57
2021/01/31 07:03:56;;;;;;;15.00;10.18;;;;;;;-3.52;88.13;98450.96;1798735;79;21512;-57
2021/01/31 07:06:47;;;;;;;17.73;11.33;;;;;;;-3.45;88.04;98455.25;1798066;79;21079;-56
2021/01/31 07:09:54;;;;;;;19.37;11.85;;;;;;;-3.44;87.44;98456.10;1798543;79;21204;-57
2021/01/31 07:12:26;;;;;;;15.93;11.53;;;;;;;-3.46;87.11;98462.88;1798529;79;21115;-58
2021/01/31 07:15:04;;;;;;;15.80;11.12;;;;;;;-3.49;86.74;98472.56;1770421;79;21080;-57
2021/01/31 07:17:39;;;;;;;16.80;11.93;;;;;;;-3.52;86.89;98468.75;1798543;79;21112;-58
2021/01/31 07:20:17;;;;;;;17.15;11.43;;;;;;;-3.53;86.63;98466.20;1798553;79;21597;-58
2021/01/31 07:22:52;;;;;;;16.00;11.83;;;;;;;-3.55;86.49;98466.20;1772391;79;22080;-58
2021/01/31 07:25:39;;;;;;;14.47;10.77;;;;;;;-3.56;86.56;98472.51;1798737;79;21127;-58
2021/01/31 07:28:21;;;;;;;18.98;12.15;;;;;;;-3.58;86.71;98470.38;1798685;79;21080;-56
2021/01/31 07:31:09;;;;;;;17.15;12.23;;;;;;;-3.56;86.72;98472.09;1798404;79;21735;-57
2021/01/31 07:33:48;;;;;;;15.20;10.93;;;;;;;-3.49;86.98;98478.07;1798663;79;21072;-56
2021/01/31 07:36:34;;;;;;;17.67;11.85;;;;;;;-3.41;86.81;98482.38;1798567;79;21377;-57
2021/01/31 07:39:10;;;;;;;13.72;10.65;;;;;;;-3.35;86.72;98486.23;1798458;79;21146;-57
2021/01/31 07:41:54;;;;;;;16.33;10.80;;;;;;;-3.28;86.58;98490.95;1771015;79;21068;-57
2021/01/31 07:44:32;;;;;;;14.00;10.28;;;;;;;-3.21;86.53;98490.16;1798744;79;21195;-57
2021/01/31 07:47:00;;;;;;;14.87;10.75;;;;;;;-3.09;86.31;98498.30;1770098;79;21568;-57
2021/01/31 07:49:59;;;;;;;16.50;11.95;;;;;;;-3.03;86.10;98496.20;1798830;79;22226;-58
2021/01/31 07:52:28;;;;;;;13.35;10.15;;;;;;;-2.98;86.09;98492.85;1798497;79;21119;-56
2021/01/31 07:55:28;;;;;;;13.58;9.88;;;;;;;-2.85;85.90;98493.78;1786606;79;21520;-58
2021/01/31 07:58:27;;;;;;;17.77;11.25;;;;;;;-2.71;85.89;98495.99;1784463;80;21061;-56
2021/01/31 08:00:54;;;;;;;18.90;12.75;;;;;;;-2.52;84.81;98492.67;1784596;80;21478;-57
2021/01/31 08:03:34;;;;;;;16.67;11.35;;;;;;;-2.37;84.44;98488.50;1784496;80;21382;-57
2021/01/31 08:06:22;;;;;;;19.23;13.40;;;;;;;-2.29;83.77;98490.22;1784390;80;21124;-58
2021/01/31 08:08:52;;;;;;;54.30;28.27;;;;;;;-2.19;83.96;98496.22;1784475;80;21124;-58
2021/01/31 08:11:28;;;;;;;24.15;16.07;;;;;;;-2.06;83.46;98496.66;1784431;80;21151;-56
2021/01/31 08:13:55;;;;;;;;;;;;;;;-1.94;83.05;98495.01;1787206;80;21048;-56
2021/01/31 08:16:49;;;;;;;48.02;24.40;;;;;;;-1.93;82.56;98497.98;1784416;80;21212;-56
2021/01/31 08:19:24;;;;;;;25.37;16.25;;;;;;;-1.94;82.57;98503.92;1784445;80;21068;-57
2021/01/31 08:22:06;;;;;;;42.05;27.73;;;;;;;-1.88;81.88;98506.06;1784513;80;21107;-57
2021/01/31 08:25:07;;;;;;;30.77;19.75;;;;;;;-1.89;81.89;98511.12;1784496;80;21184;-58
2021/01/31 08:27:43;;;;;;;39.50;22.60;;;;;;;-1.77;82.16;98509.89;1780844;80;21060;-57
2021/01/31 08:30:33;;;;;;;34.30;19.62;;;;;;;-1.65;81.58;98515.02;1784366;80;21380;-57
2021/01/31 08:33:22;;;;;;;33.58;20.32;;;;;;;-1.65;80.76;98520.55;1784438;80;21127;-57
2021/01/31 08:35:55;;;;;;;32.88;19.50;;;;;;;-1.70;80.78;98523.08;1784470;80;21601;-57
2021/01/31 08:38:35;;;;;;;38.65;23.40;;;;;;;-1.70;80.63;98521.80;1784461;80;21155;-57
2021/01/31 08:41:08;;;;;;;46.50;26.50;;;;;;;-1.67;80.87;98525.62;1784482;79;21108;-58
2021/01/31 08:43:49;;;;;;;42.45;24.57;;;;;;;-1.58;81.03;98532.03;1784511;80;21376;-58
2021/01/31 08:46:32;;;;;;;38.63;23.73;;;;;;;-1.52;80.42;98534.56;1784443;80;21510;-57
2021/01/31 08:49:06;;;;;;;39.88;24.05;;;;;;;-1.49;80.04;98544.77;1784539;80;21604;-56
2021/01/31 08:51:43;;;;;;;;;;;;;;;-1.55;79.77;98542.64;1786112;80;21108;-57
2021/01/31 08:54:17;;;;;;;49.03;26.05;;;;;;;-1.63;79.96;98545.60;1781124;80;20462;-57
2021/01/31 08:56:53;;;;;;;49.53;27.45;;;;;;;-1.64;80.18;98558.77;1776112;80;21367;-57
2021/01/31 08:59:25;;;;;;;53.33;27.80;;;;;;;-1.59;79.87;98557.48;1776082;80;21156;-57
2021/01/31 09:02:13;;;;;;;63.83;33.45;;;;;;;-1.62;79.68;98560.89;1776195;80;21101;-58
2021/01/31 09:05:06;;;;;;;60.83;31.07;;;;;;;-1.59;80.02;98557.48;1775791;80;21168;-56
2021/01/31 09:07:37;;;;;;;92.00;38.85;;;;;;;-1.52;79.34;98564.30;1776203;80;21124;-56
2021/01/31 09:10:13;;;;;;;72.37;34.08;;;;;;;-1.53;79.00;98563.88;1776160;80;21371;-59
2021/01/31 09:12:42;;;;;;;83.75;41.02;;;;;;;-1.54;78.91;98571.09;1776160;80;21128;-56
2021/01/31 09:15:18;;;;;;;66.00;37.03;;;;;;;-1.50;79.00;98572.81;1754658;80;21147;-57
2021/01/31 09:17:46;;;;;;;68.55;37.58;;;;;;;-1.46;78.65;98575.36;1771892;80;21537;-56
2021/01/31 09:20:26;;;;;;;70.67;38.23;;;;;;;-1.40;78.87;98571.55;1776138;80;21053;-56
2021/01/31 09:22:59;;;;;;;62.15;33.73;;;;;;;-1.27;78.85;98576.67;1755804;80;21213;-56
2021/01/31 09:25:27;;;;;;;62.03;33.02;;;;;;;-1.17;78.45;98571.56;1755377;80;21117;-57
2021/01/31 09:28:04;;;;;;;83.03;38.80;;;;;;;-1.09;77.44;98575.40;1754814;80;21077;-57
2021/01/31 09:30:33;;;;;;;65.62;35.00;;;;;;;-1.10;77.56;98577.53;1776141;80;21160;-56
2021/01/31 09:33:09;;;;;;;83.58;37.50;;;;;;;-1.08;77.25;98577.52;1776070;80;21135;-56
2021/01/31 09:35:38;;;;;;;58.33;25.57;;;;;;;-1.05;76.85;98586.47;1776302;80;21187;-57
2021/01/31 09:38:30;;;;;;;76.28;35.68;;;;;;;-1.13;76.58;98586.03;1776106;80;21081;-58
2021/01/31 09:40:59;;;;;;;93.22;39.55;;;;;;;-1.18;76.74;98586.88;1776183;80;21080;-57
2021/01/31 09:43:30;;;;;;;63.83;31.68;;;;;;;-1.17;76.65;98591.13;1776128;80;21124;-57
2021/01/31 09:46:00;;;;;;;71.07;36.73;;;;;;;-1.17;76.50;98594.52;1776144;80;21101;-58
2021/01/31 09:48:31;;;;;;;59.98;33.60;;;;;;;-1.18;76.42;98594.53;1738330;80;21259;-58
2021/01/31 09:51:01;;;;;;;50.73;28.98;;;;;;;-1.20;76.44;98603.88;1776201;80;21521;-57
2021/01/31 09:53:36;;;;;;;51.73;30.90;;;;;;;-1.20;76.30;98601.33;1776236;80;21765;-58
2021/01/31 09:56:29;;;;;;;58.45;31.57;;;;;;;-1.19;76.36;98601.76;1776427;80;21048;-58
2021/01/31 09:58:57;;;;;;;49.00;26.77;;;;;;;-1.10;75.97;98604.31;1776187;80;21585;-57
2021/01/31 10:01:29;;;;;;;57.58;29.27;;;;;;;-1.02;75.82;98605.16;1776107;80;21379;-57
2021/01/31 10:04:03;;;;;;;51.70;27.25;;;;;;;-1.01;75.73;98609.41;1776217;80;21526;-57
2021/01/31 10:06:45;;;;;;;52.75;28.83;;;;;;;-0.99;75.79;98610.68;1775888;80;21152;-57
2021/01/31 10:09:12;;;;;;;59.10;35.03;;;;;;;-0.95;75.79;98609.84;1776175;80;21553;-57
2021/01/31 10:11:48;;;;;;;57.25;31.35;;;;;;;-0.90;76.27;98607.73;1776142;80;21162;-57
2021/01/31 10:14:47;;;;;;;61.35;32.10;;;;;;;-0.77;76.08;98607.70;1775792;80;21212;-57
2021/01/31 10:17:31;;;;;;;54.40;30.08;;;;;;;-0.71;75.74;98608.98;1773857;80;21226;-59
2021/01/31 10:20:30;;;;;;;57.27;31.68;;;;;;;-0.67;75.32;98610.70;1776241;80;21513;-57
2021/01/31 10:23:05;;;;;;;74.45;41.23;;;;;;;-0.58;75.12;98617.06;1776176;80;21163;-58
2021/01/31 10:25:33;;;;;;;64.97;33.85;;;;;;;-0.48;75.10;98617.47;1776206;80;21604;-58
2021/01/31 10:28:04;;;;;;;49.60;27.25;;;;;;;-0.38;74.85;98609.36;1776130;80;21358;-58
2021/01/31 10:30:48;;;;;;;42.50;24.82;;;;;;;-0.30;74.58;98614.05;1775979;80;21142;-58
2021/01/31 10:33:48;;;;;;;44.48;25.85;;;;;;;-0.24;74.04;98614.01;1776097;80;21081;-59
2021/01/31 10:36:26;;;;;;;49.40;28.77;;;;;;;-0.27;73.07;98621.69;1776028;80;21066;-58
2021/01/31 10:38:58;;;;;;;55.85;32.45;;;;;;;-0.31;73.35;98621.27;1776235;80;21489;-57
2021/01/31 10:41:26;;;;;;;41.80;24.70;;;;;;;-0.30;72.93;98620.00;1775934;80;21513;-57
2021/01/31 10:44:03;;;;;;;38.67;22.67;;;;;;;-0.29;72.42;98619.58;1776058;80;21148;-58
2021/01/31 10:46:34;;;;;;;33.80;20.97;;;;;;;-0.32;72.69;98625.95;1775830;80;21180;-58
2021/01/31 10:49:02;;;;;;;33.90;20.85;;;;;;;-0.36;72.19;98622.56;1774985;80;21124;-57
2021/01/31 10:51:32;;;;;;;34.20;21.68;;;;;;;-0.32;72.23;98626.80;1776002;80;21576;-58
2021/01/31 10:54:03;;;;;;;39.60;22.75;;;;;;;-0.25;72.21;98628.06;1776073;80;22224;-57
2021/01/31 10:56:31;;;;;;;36.77;22.20;;;;;;;-0.15;71.60;98625.91;1776073;80;21152;-58
2021/01/31 10:59:00;;;;;;;32.70;20.17;;;;;;;-0.17;71.49;98625.06;1776091;80;21171;-57
2021/01/31 11:01:28;;;;;;;37.10;22.13;;;;;;;-0.14;71.37;98632.31;1775158;80;21069;-58
2021/01/31 11:03:57;;;;;;;34.65;21.27;;;;;;;-0.11;70.68;98627.18;1754724;80;21080;-58
2021/01/31 11:06:27;;;;;;;47.93;27.30;;;;;;;-0.13;70.50;98629.33;1775996;80;21381;-60
2021/01/31 11:08:55;;;;;;;51.40;28.10;;;;;;;-0.08;70.76;98633.98;1776069;80;21096;-57
2021/01/31 11:11:24;;;;;;;45.80;25.32;;;;;;;-0.07;70.22;98630.59;1775973;80;21073;-58
2021/01/31 11:13:53;;;;;;;47.75;28.07;;;;;;;-0.19;69.24;98626.35;1776104;80;21120;-58
2021/01/31 11:16:21;;;;;;;41.53;25.48;;;;;;;-0.44;69.47;98631.95;1775998;80;21104;-57
2021/01/31 11:18:49;;;;;;;38.25;25.32;;;;;;;-0.63;69.37;98631.09;1776062;80;21201;-57
2021/01/31 11:21:23;;;;;;;38.13;24.20;;;;;;;-0.80;69.86;98635.36;1775963;80;21081;-57
2021/01/31 11:23:53;;;;;;;49.63;29.05;;;;;;;-0.96;70.13;98631.11;1776163;80;21569;-57
2021/01/31 11:26:24;;;;;;;41.15;24.90;;;;;;;-1.14;70.28;98634.47;1775995;80;21152;-61
2021/01/31 11:28:53;;;;;;;39.08;22.85;;;;;;;-1.31;70.67;98639.97;1775949;80;37438;-58
2021/01/31 11:31:23;;;;;;;34.40;18.90;;;;;;;-1.45;70.80;98637.38;1776033;80;21390;-58
2021/01/31 11:33:54;;;;;;;34.53;20.05;;;;;;;-1.56;70.88;98636.09;1776025;80;21625;-58
2021/01/31 11:36:23;;;;;;;38.02;22.50;;;;;;;-1.66;71.25;98635.64;1775963;80;21117;-58
2021/01/31 11:38:51;;;;;;;29.52;17.15;;;;;;;-1.70;71.44;98639.02;1776193;80;21548;-58
2021/01/31 11:41:18;;;;;;;37.08;21.75;;;;;;;-1.73;71.52;98632.64;1776007;80;21069;-58
2021/01/31 11:43:46;;;;;;;37.63;19.73;;;;;;;-1.77;71.54;98631.77;1776050;80;21356;-58
2021/01/31 11:46:14;;;;;;;27.93;17.37;;;;;;;-1.82;71.58;98628.34;1775995;80;21144;-58
2021/01/31 11:48:42;;;;;;;27.40;16.75;;;;;;;-1.84;71.76;98631.73;1776067;80;21540;-58
2021/01/31 11:51:10;;;;;;;29.02;18.65;;;;;;;-1.86;71.78;98633.44;1776014;80;21621;-58
2021/01/31 11:53:39;;;;;;;33.53;19.52;;;;;;;-1.89;71.85;98633.40;1776084;80;21124;-58
2021/01/31 11:56:07;;;;;;;28.62;17.10;;;;;;;-1.92;71.98;98632.98;1782478;80;22237;-58
2021/01/31 11:58:34;;;;;;;28.25;16.07;;;;;;;-1.90;71.84;98634.25;1784142;80;21100;-58
2021/01/31 12:01:03;;;;;;;27.48;17.52;;;;;;;-1.92;71.88;98630.85;1784344;80;21132;-58